Time;durP1;ratioP1;P1;durP2;ratioP2;P2;SDS_P1;SDS_P2;PMS_P1;PMS_P2;Temp;Humidity;BMP_temperature;BMP_pressure;BME280_temperature;BME280_humidity;BME280_pressure;Samples;Min_cycle;Max_cycle;Signal;HPM_P1;HPM_P2
2022/06/23 00:01:42;;;;;;;0.50;0.50;;;;;;;18.18;63.66;99162.06;4955953;29;20493;-69
2022/06/23 00:04:14;;;;;;;0.60;0.60;;;;;;;18.19;63.26;99161.13;4956566;29;20541;-69
2022/06/23 00:06:49;;;;;;;0.50;0.50;;;;;;;18.22;63.13;99168.78;4955861;29;20072;-69
2022/06/23 00:09:39;;;;;;;0.82;0.82;;;;;;;18.21;63.36;99166.25;4955844;29;20043;-69
2022/06/23 00:12:36;;;;;;;0.50;0.50;;;;;;;18.13;63.91;99174.31;4955973;29;20146;-69
2022/06/23 00:15:22;;;;;;;0.63;0.63;;;;;;;18.16;63.04;99173.34;4955199;29;20049;-69
2022/06/23 00:17:58;;;;;;;0.77;0.77;;;;;;;18.15;63.04;99157.00;4955073;29;20047;-69
2022/06/23 00:20:31;;;;;;;1.30;1.00;;;;;;;18.26;63.46;99170.31;4955932;29;20043;-69
2022/06/23 00:23:07;;;;;;;0.50;0.50;;;;;;;18.22;63.89;99178.25;4955607;29;20134;-69
2022/06/23 00:25:42;;;;;;;0.57;0.57;;;;;;;18.11;64.73;99178.69;4955664;29;20055;-69
2022/06/23 00:28:25;;;;;;;0.60;0.60;;;;;;;18.06;65.17;99183.19;4955596;29;20054;-69
2022/06/23 00:30:57;;;;;;;0.43;0.43;;;;;;;17.94;65.47;99163.84;4956115;29;20574;-69
2022/06/23 00:33:30;;;;;;;1.35;1.25;;;;;;;18.01;65.62;99190.28;4955586;29;20051;-69
2022/06/23 00:36:00;;;;;;;0.50;0.50;;;;;;;18.00;65.13;99178.25;4955740;29;20493;-69
2022/06/23 00:38:38;;;;;;;0.50;0.50;;;;;;;18.07;65.09;99174.53;4955531;29;20054;-69
2022/06/23 00:41:17;;;;;;;0.50;0.50;;;;;;;18.11;65.15;99181.28;4955494;29;20047;-69
2022/06/23 00:43:48;;;;;;;0.40;0.40;;;;;;;18.09;65.29;99172.75;4955509;29;20051;-69
2022/06/23 00:46:24;;;;;;;0.60;0.60;;;;;;;18.11;64.87;99186.44;4955442;29;20134;-69
2022/06/23 00:49:00;;;;;;;0.60;0.60;;;;;;;18.17;64.88;99188.78;4955703;29;20071;-69
2022/06/23 00:51:37;;;;;;;0.65;0.65;;;;;;;18.20;65.24;99206.75;4955355;29;20421;-69
2022/06/23 00:54:15;;;;;;;0.50;0.50;;;;;;;18.16;65.75;99210.34;4955217;29;20054;-69
2022/06/23 00:56:50;;;;;;;0.60;0.60;;;;;;;18.17;65.87;99214.59;4954757;29;20432;-69
2022/06/23 00:59:22;;;;;;;0.82;0.82;;;;;;;18.22;65.80;99214.41;4955307;29;20060;-69
2022/06/23 01:01:57;;;;;;;0.57;0.57;;;;;;;18.17;66.14;99217.19;4955308;29;20055;-69
2022/06/23 01:04:32;;;;;;;0.52;0.52;;;;;;;18.26;65.81;99219.41;4937883;29;20043;-69
2022/06/23 01:07:08;;;;;;;0.63;0.63;;;;;;;18.27;65.83;99215.94;4955239;29;20047;-69
2022/06/23 01:09:46;;;;;;;1.00;0.95;;;;;;;18.34;65.85;99214.78;4955234;29;20052;-69
2022/06/23 01:12:24;;;;;;;0.68;0.68;;;;;;;18.39;65.82;99223.19;4959070;29;20078;-69
2022/06/23 01:15:01;;;;;;;0.68;0.63;;;;;;;18.46;65.56;99224.66;4959236;29;20055;-69
2022/06/23 01:17:38;;;;;;;1.95;1.20;;;;;;;18.59;65.36;99225.03;4958872;29;20047;-69
2022/06/23 01:20:19;;;;;;;0.40;0.40;;;;;;;18.68;64.44;99222.91;4959210;29;20055;-69
2022/06/23 01:23:01;;;;;;;0.52;0.52;;;;;;;18.78;63.98;99235.44;4959141;29;20051;-69
2022/06/23 01:25:55;;;;;;;0.75;0.75;;;;;;;18.80;63.54;99228.47;4958742;29;20124;-69
2022/06/23 01:28:29;;;;;;;0.82;0.82;;;;;;;18.82;63.50;99242.16;4958831;29;20498;-69
2022/06/23 01:31:04;;;;;;;0.60;0.60;;;;;;;18.79;63.30;99232.78;4958696;29;20054;-69
2022/06/23 01:33:39;;;;;;;0.70;0.70;;;;;;;18.71;63.31;99234.88;4958620;29;20473;-69
2022/06/23 01:36:15;;;;;;;0.70;0.70;;;;;;;18.77;63.16;99244.09;4958560;29;20096;-69
2022/06/23 01:39:00;;;;;;;1.20;0.88;;;;;;;18.73;63.16;99239.06;4958505;29;20050;-69
2022/06/23 01:41:37;;;;;;;0.50;0.50;;;;;;;18.55;63.64;99244.97;4958540;29;20047;-69
2022/06/23 01:44:19;;;;;;;0.93;0.82;;;;;;;18.42;64.03;99228.25;4959133;29;20489;-69
2022/06/23 01:46:53;;;;;;;0.57;0.57;;;;;;;18.32;64.46;99239.84;4958729;29;20043;-69
2022/06/23 01:49:27;;;;;;;0.50;0.50;;;;;;;18.26;64.65;99232.31;4958703;29;20560;-69
2022/06/23 01:52:04;;;;;;;0.40;0.40;;;;;;;18.05;64.97;99233.16;4958318;29;20070;-69
2022/06/23 01:54:35;;;;;;;0.47;0.47;;;;;;;17.88;65.30;99231.22;4958226;29;20046;-69
2022/06/23 01:57:11;;;;;;;0.50;0.50;;;;;;;17.85;65.30;99230.50;4958365;29;20500;-69
2022/06/23 01:59:58;;;;;;;0.60;0.60;;;;;;;17.83;65.55;99237.44;4958174;29;20142;-69
2022/06/23 02:02:43;;;;;;;0.70;0.70;;;;;;;17.74;65.62;99232.63;4958407;29;20134;-69
2022/06/23 02:05:23;;;;;;;0.50;0.50;;;;;;;17.86;65.48;99235.59;4958373;29;20453;-69
2022/06/23 02:07:56;;;;;;;0.50;0.50;;;;;;;17.97;64.90;99242.94;4957840;29;20065;-69
2022/06/23 02:10:35;;;;;;;0.75;0.75;;;;;;;17.91;65.06;99245.75;4958064;29;20055;-69
2022/06/23 02:13:15;;;;;;;0.60;0.60;;;;;;;17.75;65.52;99242.91;4958282;29;20058;-69
2022/06/23 02:15:57;;;;;;;0.50;0.50;;;;;;;17.78;65.48;99247.94;4957876;29;20043;-69
2022/06/23 02:18:32;;;;;;;0.50;0.50;;;;;;;17.83;65.35;99252.94;4957922;29;20043;-69
2022/06/23 02:21:21;;;;;;;0.43;0.43;;;;;;;17.86;65.27;99255.41;4957838;29;20497;-69
2022/06/23 02:23:56;;;;;;;0.60;0.60;;;;;;;17.80;65.10;99253.06;4957284;29;20051;-69
2022/06/23 02:26:35;;;;;;;0.63;0.63;;;;;;;17.80;65.14;99263.38;4957611;29;20090;-69
2022/06/23 02:29:14;;;;;;;1.20;0.93;;;;;;;17.72;65.02;99265.41;4957735;29;20057;-69
2022/06/23 02:31:54;;;;;;;1.15;0.90;;;;;;;17.62;65.44;99269.19;4957626;29;20074;-68
2022/06/23 02:34:31;;;;;;;0.68;0.68;;;;;;;17.61;65.34;99277.84;4958216;29;20051;-69
2022/06/23 02:37:07;;;;;;;0.60;0.60;;;;;;;17.57;65.71;99271.09;4957350;29;20556;-69
2022/06/23 02:39:46;;;;;;;0.77;0.77;;;;;;;17.53;65.93;99274.69;4957480;29;20506;-69
2022/06/23 02:42:27;;;;;;;0.55;0.55;;;;;;;17.44;66.39;99271.50;4957462;29;20078;-69
2022/06/23 02:45:18;;;;;;;0.50;0.50;;;;;;;17.50;66.09;99274.75;4957380;29;20047;-69
2022/06/23 02:48:09;;;;;;;2.80;1.33;;;;;;;17.59;66.15;99277.06;4957286;29;20121;-69
2022/06/23 02:50:56;;;;;;;0.60;0.60;;;;;;;17.65;66.01;99279.41;4957312;29;20043;-69
2022/06/23 02:53:51;;;;;;;0.65;0.65;;;;;;;17.69;65.53;99278.41;4957198;29;20059;-69
2022/06/23 02:56:41;;;;;;;0.57;0.57;;;;;;;17.71;65.64;99286.94;4957149;29;20059;-69
2022/06/23 02:59:15;;;;;;;0.60;0.60;;;;;;;17.73;65.53;99278.22;4957037;29;20055;-69
2022/06/23 03:01:56;;;;;;;0.80;0.80;;;;;;;17.72;65.50;99278.31;4957027;29;20098;-69
2022/06/23 03:04:31;;;;;;;0.50;0.50;;;;;;;17.55;66.03;99278.06;4957045;29;20051;-69
2022/06/23 03:07:08;;;;;;;0.85;0.85;;;;;;;17.46;66.53;99289.53;4956996;29;20047;-70
2022/06/23 03:09:41;;;;;;;0.80;0.80;;;;;;;17.31;66.77;99296.06;4956925;29;20045;-69
2022/06/23 03:12:15;;;;;;;0.55;0.55;;;;;;;17.22;67.37;99306.69;4957221;29;20057;-69
2022/06/23 03:14:58;;;;;;;0.85;0.85;;;;;;;17.23;67.64;99308.34;4957377;29;20426;-69
2022/06/23 03:17:35;;;;;;;0.93;0.65;;;;;;;17.31;66.82;99310.69;4956645;29;20082;-69
2022/06/23 03:20:13;;;;;;;0.75;0.60;;;;;;;17.42;65.77;99317.16;4956757;29;20071;-69
2022/06/23 03:22:48;;;;;;;0.50;0.50;;;;;;;17.53;65.37;99310.81;4957011;29;20047;-69
2022/06/23 03:25:25;;;;;;;0.52;0.52;;;;;;;17.57;64.81;99318.41;4956659;29;20077;-69
2022/06/23 03:27:59;;;;;;;0.80;0.73;;;;;;;17.52;64.83;99320.28;4956872;29;20122;-69
2022/06/23 03:30:36;;;;;;;1.00;1.00;;;;;;;17.44;65.12;99327.44;4957033;29;20434;-69
2022/06/23 03:33:15;;;;;;;1.17;0.90;;;;;;;17.32;65.48;99331.25;4956705;28;20402;-69
2022/06/23 03:35:51;;;;;;;0.50;0.50;;;;;;;17.21;65.73;99335.09;4955945;29;20135;-69
2022/06/23 03:44:04;;;;;;;0.65;0.65;;;;;;;17.47;64.55;99350.53;4956617;29;20070;-69
2022/06/23 03:46:39;;;;;;;4.82;1.00;;;;;;;17.59;64.54;99341.59;4956230;29;20047;-69
2022/06/23 03:49:29;;;;;;;0.60;0.60;;;;;;;17.76;63.83;99340.09;4956042;29;20066;-69
2022/06/23 03:52:03;;;;;;;0.60;0.60;;;;;;;17.84;63.33;99337.25;4956137;29;20051;-69
2022/06/23 03:54:39;;;;;;;0.60;0.60;;;;;;;17.87;63.00;99342.31;4954994;29;20055;-69
2022/06/23 03:57:24;;;;;;;0.75;0.75;;;;;;;17.96;62.32;99352.31;4956136;29;20082;-69
2022/06/23 04:00:14;;;;;;;0.70;0.70;;;;;;;18.04;61.80;99358.03;4955817;29;20493;-69
2022/06/23 04:02:46;;;;;;;0.63;0.63;;;;;;;18.12;61.20;99355.16;4956367;29;20073;-69
2022/06/23 04:05:22;;;;;;;0.50;0.50;;;;;;;18.19;61.22;99360.03;4956049;29;20079;-69
2022/06/23 04:07:56;;;;;;;0.60;0.60;;;;;;;18.26;60.51;99366.66;4954475;29;20497;-69
2022/06/23 04:10:30;;;;;;;0.60;0.60;;;;;;;18.34;60.24;99375.00;4955838;29;20110;-69
2022/06/23 04:13:19;;;;;;;1.30;1.20;;;;;;;18.39;60.44;99377.41;4955884;29;20450;-69
2022/06/23 04:15:49;;;;;;;0.63;0.63;;;;;;;18.44;60.07;99381.50;4956168;29;20054;-69
2022/06/23 04:18:23;;;;;;;0.95;0.85;;;;;;;18.51;59.99;99383.00;4938915;29;20044;-69
2022/06/23 04:20:56;;;;;;;0.52;0.52;;;;;;;18.59;59.48;99380.97;4955631;29;20101;-69
2022/06/23 04:23:32;;;;;;;0.70;0.70;;;;;;;18.70;59.31;99389.16;4938566;29;20576;-69
2022/06/23 04:26:05;;;;;;;1.13;1.02;;;;;;;18.78;59.28;99393.19;4955942;29;20051;-69
2022/06/23 04:28:41;;;;;;;1.13;1.10;;;;;;;18.90;59.51;99397.88;4955651;29;20063;-69
2022/06/23 04:31:17;;;;;;;1.25;0.80;;;;;;;19.03;59.14;99396.50;4955482;29;20102;-69
2022/06/23 04:33:49;;;;;;;0.57;0.57;;;;;;;19.11;58.73;99399.63;4955916;29;20055;-69
2022/06/23 04:36:22;;;;;;;0.80;0.80;;;;;;;19.21;58.42;99406.13;4955881;29;20051;-69
2022/06/23 04:38:56;;;;;;;0.50;0.50;;;;;;;19.41;58.32;99407.94;4955451;29;20130;-69
2022/06/23 04:41:35;;;;;;;0.85;0.85;;;;;;;19.50;57.94;99412.75;4955760;29;20588;-69
2022/06/23 04:44:07;;;;;;;0.70;0.70;;;;;;;19.58;57.40;99406.31;4955803;29;20047;-69
2022/06/23 04:46:41;;;;;;;0.45;0.45;;;;;;;19.74;57.23;99407.38;4955058;29;20047;-69
2022/06/23 04:49:19;;;;;;;0.50;0.50;;;;;;;19.92;57.35;99411.78;4955363;29;20098;-69
2022/06/23 04:51:56;;;;;;;0.57;0.57;;;;;;;19.87;57.52;99405.94;4955347;29;20130;-69
2022/06/23 04:54:29;;;;;;;0.77;0.77;;;;;;;19.89;57.64;99411.06;4955369;29;20079;-69
2022/06/23 04:57:07;;;;;;;0.65;0.65;;;;;;;19.90;57.90;99413.59;4955323;29;20064;-69
2022/06/23 04:59:40;;;;;;;0.50;0.50;;;;;;;19.91;57.87;99409.25;4955560;29;20468;-69
2022/06/23 05:02:22;;;;;;;0.50;0.50;;;;;;;19.99;58.02;99409.75;4955157;29;20199;-69
2022/06/23 05:04:59;;;;;;;0.70;0.70;;;;;;;19.99;58.07;99412.34;4955281;29;20102;-69
2022/06/23 05:07:33;;;;;;;1.33;1.23;;;;;;;19.96;58.54;99417.69;4955264;29;20642;-69
2022/06/23 05:10:08;;;;;;;0.73;0.73;;;;;;;19.82;59.17;99420.84;4955557;29;20043;-69
2022/06/23 05:12:42;;;;;;;0.45;0.45;;;;;;;19.81;59.68;99424.34;4955083;29;20039;-69
2022/06/23 05:15:21;;;;;;;0.60;0.50;;;;;;;19.78;60.37;99414.09;4955193;29;20078;-69
2022/06/23 05:17:53;;;;;;;1.05;1.02;;;;;;;19.86;61.10;99419.81;4955170;29;20070;-69
2022/06/23 05:20:34;;;;;;;2.03;0.85;;;;;;;19.85;62.27;99418.13;4955365;29;20398;-69
2022/06/23 05:23:04;;;;;;;1.05;0.75;;;;;;;19.94;61.97;99422.06;4955373;29;20054;-68
2022/06/23 05:25:39;;;;;;;21.05;1.33;;;;;;;19.90;61.30;99404.97;4955069;29;20509;-69
2022/06/23 05:28:16;;;;;;;0.70;0.70;;;;;;;20.20;61.62;99431.31;4955043;29;20139;-69
2022/06/23 05:30:52;;;;;;;0.68;0.68;;;;;;;20.39;60.91;99432.22;4954974;29;20463;-69
2022/06/23 05:33:24;;;;;;;1.00;0.88;;;;;;;20.51;59.66;99431.66;4955239;29;20401;-69
2022/06/23 05:35:58;;;;;;;1.10;0.90;;;;;;;20.73;57.98;99429.78;4955329;29;20401;-68
2022/06/23 05:38:37;;;;;;;0.45;0.45;;;;;;;20.95;56.24;99433.06;4954975;29;20047;-68
2022/06/23 05:41:17;;;;;;;0.57;0.57;;;;;;;21.17;55.36;99438.09;4954955;29;20055;-68
2022/06/23 05:43:47;;;;;;;0.88;0.88;;;;;;;21.35;53.59;99438.06;4954925;29;20051;-68
2022/06/23 05:46:20;;;;;;;0.70;0.70;;;;;;;21.55;51.45;99442.28;4954875;29;20051;-68
2022/06/23 05:48:58;;;;;;;1.15;1.00;;;;;;;21.67;50.08;99443.44;4955193;29;20043;-66
2022/06/23 05:51:35;;;;;;;0.75;0.70;;;;;;;21.71;49.35;99447.56;4954838;29;20051;-66
2022/06/23 05:54:11;;;;;;;1.40;0.88;;;;;;;21.82;49.62;99442.66;4954746;29;20058;-67
2022/06/23 05:56:48;;;;;;;1.38;0.80;;;;;;;22.00;49.43;99452.19;4955138;28;20051;-67
2022/06/23 05:59:22;;;;;;;1.05;0.98;;;;;;;22.19;49.07;99452.09;4956606;29;20105;-68
2022/06/23 06:01:56;;;;;;;0.60;0.60;;;;;;;22.33;48.63;99452.19;4958154;29;20058;-67
2022/06/23 06:04:28;;;;;;;1.65;1.42;;;;;;;22.42;48.09;99455.16;4957969;29;20412;-67
2022/06/23 06:06:59;;;;;;;0.60;0.60;;;;;;;22.45;47.64;99448.97;4957791;29;20047;-66
2022/06/23 06:09:37;;;;;;;2.50;1.10;;;;;;;22.46;47.40;99459.28;4958336;29;20051;-67
2022/06/23 06:12:13;;;;;;;0.70;0.70;;;;;;;22.56;47.35;99457.88;4958192;29;20452;-67
2022/06/23 06:14:46;;;;;;;0.77;0.75;;;;;;;22.63;47.29;99461.84;4957957;29;20043;-66
2022/06/23 06:17:19;;;;;;;0.52;0.52;;;;;;;22.73;47.00;99459.59;4957797;29;20055;-67
2022/06/23 06:19:50;;;;;;;0.50;0.50;;;;;;;22.88;46.81;99463.16;4957769;29;20043;-68
2022/06/23 06:22:32;;;;;;;1.60;1.00;;;;;;;22.99;46.34;99466.00;4957310;29;20051;-68
2022/06/23 06:25:03;;;;;;;0.70;0.70;;;;;;;23.09;45.80;99457.59;4957395;29;20079;-66
2022/06/23 06:27:34;;;;;;;0.50;0.50;;;;;;;23.16;45.88;99458.09;4957133;29;20047;-67
2022/06/23 06:30:05;;;;;;;0.60;0.60;;;;;;;23.36;45.75;99470.88;4957553;29;20161;-67
2022/06/23 06:32:38;;;;;;;0.90;0.90;;;;;;;23.45;45.13;99472.97;4957625;29;20497;-67
2022/06/23 06:35:15;;;;;;;3.50;1.30;;;;;;;23.46;44.62;99466.84;4957610;29;20079;-67
2022/06/23 06:38:00;;;;;;;0.77;0.77;;;;;;;23.39;44.81;99475.94;4957722;29;20046;-66
2022/06/23 06:40:30;;;;;;;0.60;0.60;;;;;;;23.37;45.49;99469.13;4940652;29;20047;-66
2022/06/23 06:43:05;;;;;;;0.88;0.88;;;;;;;23.49;45.67;99466.66;4957376;29;20133;-67
2022/06/23 06:45:37;;;;;;;0.60;0.60;;;;;;;23.65;45.05;99472.69;4956222;29;20055;-67
2022/06/23 06:48:14;;;;;;;0.40;0.40;;;;;;;23.73;44.25;99467.84;4957371;29;20057;-68
2022/06/23 06:50:46;;;;;;;0.60;0.60;;;;;;;23.75;44.03;99473.84;4957197;29;20039;-66
2022/06/23 06:53:23;;;;;;;0.60;0.60;;;;;;;23.83;43.71;99471.63;4957349;29;20047;-67
2022/06/23 06:55:57;;;;;;;0.70;0.70;;;;;;;24.02;44.58;99475.78;4957465;29;20051;-67
2022/06/23 06:58:36;;;;;;;1.05;0.63;;;;;;;24.03;44.14;99478.28;4957460;29;20051;-66
2022/06/23 07:01:08;;;;;;;0.88;0.80;;;;;;;23.99;43.76;99482.81;4957226;29;20074;-67
2022/06/23 07:03:40;;;;;;;0.60;0.60;;;;;;;24.02;43.66;99477.44;4957055;29;20051;-67
2022/06/23 07:06:15;;;;;;;0.50;0.50;;;;;;;24.09;43.88;99482.34;4957636;29;20058;-66
2022/06/23 07:08:49;;;;;;;0.52;0.52;;;;;;;24.20;43.99;99485.13;4956453;28;20051;-67
2022/06/23 07:11:22;;;;;;;0.50;0.50;;;;;;;24.31;43.78;99480.09;4956936;29;20134;-67
2022/06/23 07:13:57;;;;;;;0.95;0.70;;;;;;;24.44;43.77;99484.50;4956901;29;20053;-67
2022/06/23 07:16:31;;;;;;;2.72;1.10;;;;;;;24.62;43.78;99488.59;4957101;29;20058;-66
2022/06/23 07:19:12;;;;;;;2.92;1.65;;;;;;;24.77;43.30;99486.84;4956795;29;20525;-68
2022/06/23 07:21:46;;;;;;;0.55;0.55;;;;;;;24.84;43.31;99490.75;4956589;29;20058;-67
2022/06/23 07:24:20;;;;;;;0.70;0.70;;;;;;;24.98;43.18;99490.75;4956571;29;20133;-67
2022/06/23 07:26:53;;;;;;;0.70;0.70;;;;;;;25.05;43.07;99499.88;4956613;29;20081;-67
2022/06/23 07:29:34;;;;;;;1.00;0.88;;;;;;;25.12;42.50;99489.91;4957134;29;20498;-67
2022/06/23 07:32:12;;;;;;;0.80;0.80;;;;;;;25.26;42.15;99480.25;4956525;29;20050;-67
2022/06/23 07:34:46;;;;;;;0.65;0.65;;;;;;;25.23;41.56;99490.03;4956619;29;20409;-67
2022/06/23 07:37:25;;;;;;;0.80;0.80;;;;;;;25.20;41.39;99498.06;4956443;29;20490;-67
2022/06/23 07:40:01;;;;;;;1.33;0.95;;;;;;;25.23;42.00;99496.09;4956192;29;20134;-68
2022/06/23 07:43:03;;;;;;;1.10;1.00;;;;;;;25.27;41.78;99491.50;4956345;29;20085;-66
2022/06/23 07:45:37;;;;;;;0.60;0.60;;;;;;;25.45;40.27;99500.00;4945956;29;20094;-67
2022/06/23 07:48:06;;;;;;;0.60;0.60;;;;;;;25.64;39.85;99495.25;4956529;29;20093;-66
2022/06/23 07:50:35;;;;;;;0.63;0.63;;;;;;;25.82;38.88;99497.47;4956421;29;20446;-67
2022/06/23 07:53:07;;;;;;;1.35;1.00;;;;;;;25.86;38.88;99495.50;4956513;29;20043;-68
2022/06/23 07:55:40;;;;;;;0.40;0.40;;;;;;;25.95;38.36;99494.91;4956392;29;20051;-67
2022/06/23 07:58:18;;;;;;;1.10;1.00;;;;;;;26.00;37.36;99498.06;4956100;29;20105;-68
2022/06/23 08:00:56;;;;;;;0.50;0.50;;;;;;;26.06;37.11;99487.16;4956192;29;20508;-66
2022/06/23 08:03:31;;;;;;;0.63;0.63;;;;;;;26.18;36.86;99491.59;4956319;29;20070;-68
2022/06/23 08:06:12;;;;;;;0.50;0.50;;;;;;;26.36;36.81;99493.00;4956217;29;20059;-67
2022/06/23 08:08:45;;;;;;;0.65;0.65;;;;;;;26.35;35.50;99498.31;4951314;29;20110;-68
2022/06/23 08:14:20;;;;;;;0.68;0.65;;;;;;;26.47;35.93;99476.53;4936934;29;20490;-67
2022/06/23 08:16:50;;;;;;;0.50;0.50;;;;;;;26.46;35.86;99491.41;4936649;29;20047;-66
2022/06/23 08:19:35;;;;;;;0.55;0.55;;;;;;;26.35;36.00;99493.91;4936793;29;20486;-68
2022/06/23 08:22:12;;;;;;;0.85;0.73;;;;;;;26.36;35.89;99490.38;4936502;29;20479;-66
2022/06/23 08:24:45;;;;;;;0.70;0.70;;;;;;;26.35;36.29;99478.22;4936526;29;20074;-67
2022/06/23 08:27:35;;;;;;;0.45;0.45;;;;;;;26.53;36.15;99476.97;4936444;29;20048;-67
2022/06/23 08:30:07;;;;;;;0.82;0.80;;;;;;;26.76;37.08;99474.53;4936431;29;20130;-67
2022/06/23 08:32:40;;;;;;;0.60;0.60;;;;;;;26.97;36.03;99475.66;4936501;29;20048;-66
2022/06/23 08:35:17;;;;;;;1.65;1.10;;;;;;;27.04;35.30;99476.88;4936343;29;20130;-65
2022/06/23 08:37:57;;;;;;;0.95;0.82;;;;;;;27.13;34.96;99471.81;4936357;29;20040;-66
2022/06/23 08:40:37;;;;;;;0.60;0.60;;;;;;;27.25;34.01;99488.44;4936554;29;20058;-67
2022/06/23 08:43:17;;;;;;;0.50;0.50;;;;;;;27.44;33.83;99480.94;4936334;29;20138;-66
2022/06/23 08:45:51;;;;;;;0.77;0.70;;;;;;;27.48;33.80;99481.56;4936293;29;20075;-67
2022/06/23 08:48:26;;;;;;;0.60;0.60;;;;;;;27.68;33.96;99478.31;4936217;29;20054;-67
2022/06/23 08:51:02;;;;;;;0.50;0.50;;;;;;;28.04;36.74;99472.13;4936253;29;20138;-67
2022/06/23 08:53:41;;;;;;;0.57;0.57;;;;;;;28.22;34.70;99473.38;4936252;29;20062;-67
2022/06/23 08:56:17;;;;;;;0.60;0.60;;;;;;;28.33;33.10;99479.47;4936310;29;20122;-67
2022/06/23 08:58:52;;;;;;;0.70;0.70;;;;;;;28.40;32.04;99471.94;4936268;29;20075;-66
2022/06/23 09:01:36;;;;;;;0.63;0.63;;;;;;;28.58;31.57;99485.44;4936071;29;20094;-66
2022/06/23 09:04:27;;;;;;;0.55;0.52;;;;;;;28.66;31.59;99478.66;4936033;29;20075;-67
2022/06/23 09:07:04;;;;;;;1.05;0.95;;;;;;;28.90;32.29;99475.88;4936148;29;20494;-68
2022/06/23 09:09:40;;;;;;;0.82;0.75;;;;;;;29.32;32.32;99476.91;4917367;29;20490;-69
2022/06/23 09:12:17;;;;;;;0.75;0.70;;;;;;;29.40;31.91;99479.75;4917084;29;20074;-68
2022/06/23 09:15:08;;;;;;;0.70;0.70;;;;;;;29.47;31.49;99476.50;4917388;29;20561;-69
2022/06/23 09:18:09;;;;;;;0.80;0.70;;;;;;;29.19;31.00;99467.41;4917007;29;20135;-68
2022/06/23 09:21:11;;;;;;;0.70;0.60;;;;;;;28.78;31.53;99469.81;4916889;29;20402;-66
2022/06/23 09:24:20;;;;;;;0.68;0.68;;;;;;;28.80;31.76;99470.53;4917068;29;20491;-68
2022/06/23 09:27:03;;;;;;;1.05;0.80;;;;;;;28.94;31.46;99467.63;4916961;29;20135;-70
2022/06/23 09:29:50;;;;;;;1.13;0.90;;;;;;;28.94;31.75;99466.78;4916947;29;20144;-68
2022/06/23 09:35:42;;;;;;;5.47;0.75;;;;;;;28.82;30.96;99473.88;4920463;29;20048;-68
2022/06/23 09:38:35;;;;;;;0.60;0.60;;;;;;;28.67;31.22;99475.09;4920669;29;20048;-67
2022/06/23 09:41:17;;;;;;;0.50;0.50;;;;;;;28.57;31.39;99474.09;4920667;29;20554;-68
2022/06/23 09:44:22;;;;;;;0.60;0.60;;;;;;;28.38;31.68;99469.44;4920234;29;20136;-66
2022/06/23 09:47:10;;;;;;;1.08;0.60;;;;;;;28.36;31.87;99471.31;4918681;29;20075;-67
2022/06/23 09:49:58;;;;;;;0.60;0.60;;;;;;;28.36;32.25;99470.50;4920635;29;20126;-68
2022/06/23 09:52:49;;;;;;;1.17;1.10;;;;;;;28.48;32.75;99466.94;4920221;29;20076;-67
2022/06/23 09:55:38;;;;;;;0.70;0.70;;;;;;;28.59;32.09;99466.94;4920190;29;20086;-68
2022/06/23 09:58:17;;;;;;;;;;;;;;;28.65;31.54;99474.34;4920596;29;20067;-67
2022/06/23 10:01:03;;;;;;;0.55;0.55;;;;;;;28.53;30.99;99462.13;4920102;29;19923;-68
2022/06/23 10:03:50;;;;;;;0.50;0.50;;;;;;;28.58;30.65;99465.25;4904217;29;20044;-67
2022/06/23 10:06:38;;;;;;;0.40;0.40;;;;;;;28.48;30.63;99464.31;4920011;29;20087;-67
2022/06/23 10:09:17;;;;;;;0.68;0.60;;;;;;;28.56;31.35;99454.03;4954058;29;20516;-69
2022/06/23 10:12:04;;;;;;;1.35;1.10;;;;;;;28.71;32.01;99455.50;4958323;29;20458;-68
2022/06/23 10:14:48;;;;;;;0.60;0.60;;;;;;;28.76;31.37;99453.34;4958013;29;20059;-71
2022/06/23 10:17:38;;;;;;;0.40;0.40;;;;;;;28.62;30.83;99450.97;4957893;29;20051;-68
2022/06/23 10:20:29;;;;;;;0.95;0.70;;;;;;;28.72;30.30;99453.72;4957862;29;20077;-72
2022/06/23 10:23:28;;;;;;;0.50;0.50;;;;;;;28.72;30.42;99451.94;4956490;29;20047;-68
2022/06/23 10:26:15;;;;;;;0.55;0.55;;;;;;;28.71;30.30;99450.25;4955470;29;20058;-67
2022/06/23 10:29:15;;;;;;;1.58;0.95;;;;;;;28.81;30.06;99448.56;4958007;29;20457;-67
2022/06/23 10:32:06;;;;;;;0.50;0.50;;;;;;;28.79;30.64;99441.75;4946932;29;20040;-68
2022/06/23 10:34:49;;;;;;;0.85;0.85;;;;;;;28.94;30.39;99436.09;4957842;29;20493;-68
2022/06/23 10:37:36;;;;;;;0.60;0.60;;;;;;;29.13;30.24;99435.47;4957641;29;20059;-68
2022/06/23 10:40:26;;;;;;;0.60;0.60;;;;;;;29.20;30.08;99436.69;4957381;29;20130;-67
2022/06/23 10:43:34;;;;;;;0.60;0.60;;;;;;;29.07;29.64;99436.78;4956668;28;20051;-66
2022/06/23 10:46:11;;;;;;;0.65;0.65;;;;;;;29.04;29.86;99441.44;4957412;29;20051;-69
2022/06/23 10:48:56;;;;;;;0.50;0.50;;;;;;;28.99;29.54;99439.19;4957323;29;20062;-67
2022/06/23 10:51:55;;;;;;;0.65;0.65;;;;;;;29.12;29.83;99445.16;4957606;29;20076;-69
2022/06/23 10:55:03;;;;;;;;;;;;;;;29.25;29.46;99438.94;4954246;29;20065;-68
2022/06/23 10:57:48;;;;;;;0.40;0.40;;;;;;;29.27;29.32;99447.53;4898107;29;19954;-68
2022/06/23 11:00:20;;;;;;;0.50;0.50;;;;;;;29.29;28.41;99438.56;4955060;29;20055;-68
2022/06/23 11:03:12;;;;;;;1.73;1.13;;;;;;;29.55;27.73;99436.41;4957189;29;20458;-68
2022/06/23 11:06:16;;;;;;;0.60;0.60;;;;;;;29.48;27.33;99445.78;4957080;29;20576;-68
2022/06/23 11:09:08;;;;;;;0.68;0.68;;;;;;;29.47;26.91;99444.94;4946895;29;20114;-66
2022/06/23 11:11:52;;;;;;;0.60;0.60;;;;;;;29.44;27.03;99444.38;4955796;29;20126;-67
2022/06/23 11:14:37;;;;;;;0.60;0.60;;;;;;;29.51;27.27;99445.53;4956766;29;20055;-68
2022/06/23 11:17:17;;;;;;;0.50;0.50;;;;;;;29.72;27.18;99439.31;4956881;29;20490;-67
2022/06/23 11:20:11;;;;;;;0.63;0.63;;;;;;;29.95;26.46;99442.69;4956754;29;20059;-69
2022/06/23 11:22:51;;;;;;;0.68;0.68;;;;;;;29.96;24.29;99449.63;4956569;29;20059;-67
2022/06/23 11:25:28;;;;;;;;;;;;;;;30.05;24.29;99440.09;4957045;29;20110;-68
2022/06/23 11:28:05;;;;;;;0.80;0.80;;;;;;;30.29;26.10;99438.84;4956564;29;20419;-68
2022/06/23 11:30:48;;;;;;;0.60;0.60;;;;;;;30.44;25.82;99429.66;4956606;29;20134;-67
2022/06/23 11:33:41;;;;;;;0.60;0.60;;;;;;;30.16;25.63;99438.22;4956545;29;20486;-70
2022/06/23 11:36:22;;;;;;;0.60;0.60;;;;;;;29.88;25.35;99433.63;4956457;29;20047;-67
2022/06/23 11:39:16;;;;;;;0.50;0.50;;;;;;;29.87;25.33;99431.97;4956446;29;20570;-65
2022/06/23 11:42:03;;;;;;;0.60;0.60;;;;;;;29.73;25.08;99440.16;4956315;29;20054;-66
2022/06/23 11:44:49;;;;;;;0.50;0.50;;;;;;;29.65;24.13;99442.59;4956194;29;20058;-67
2022/06/23 11:47:26;;;;;;;0.50;0.50;;;;;;;29.57;24.01;99439.75;4956264;29;20061;-66
2022/06/23 11:50:09;;;;;;;0.50;0.50;;;;;;;29.67;25.14;99430.13;4957179;29;20051;-67
2022/06/23 11:52:56;;;;;;;0.70;0.70;;;;;;;29.94;26.47;99430.50;4956364;29;20047;-67
2022/06/23 11:55:36;;;;;;;2.15;1.15;;;;;;;30.17;26.02;99428.53;4955265;28;20146;-70
2022/06/23 11:58:29;;;;;;;0.50;0.50;;;;;;;30.25;26.34;99432.19;4956506;29;20113;-67
2022/06/23 12:01:14;;;;;;;0.50;0.50;;;;;;;30.31;26.41;99421.13;4956012;29;20063;-67
2022/06/23 12:04:09;;;;;;;0.60;0.60;;;;;;;30.07;26.49;99427.63;4955905;29;20102;-67
2022/06/23 12:06:52;;;;;;;0.50;0.50;;;;;;;30.13;26.53;99417.44;4955923;29;20122;-67
2022/06/23 12:09:30;;;;;;;0.70;0.70;;;;;;;30.34;26.90;99434.06;4955745;29;20055;-67
2022/06/23 12:12:05;;;;;;;0.50;0.50;;;;;;;30.31;41.83;99405.31;4955921;29;20055;-67
2022/06/23 12:14:36;;;;;;;0.52;0.52;;;;;;;30.43;26.25;99420.09;4955838;29;20130;-67
2022/06/23 12:17:10;;;;;;;0.55;0.55;;;;;;;30.55;26.41;99423.44;4955795;29;20051;-68
2022/06/23 12:19:45;;;;;;;0.93;0.93;;;;;;;30.52;26.41;99420.28;4956046;29;20130;-67
2022/06/23 12:22:21;;;;;;;0.50;0.50;;;;;;;30.47;27.07;99418.84;4955662;29;20047;-67
2022/06/23 12:25:01;;;;;;;0.60;0.60;;;;;;;30.49;26.82;99414.31;4955757;29;20055;-67
2022/06/23 12:27:39;;;;;;;0.70;0.70;;;;;;;30.52;27.34;99400.03;4955955;29;20051;-67
2022/06/23 12:30:11;;;;;;;0.63;0.63;;;;;;;30.63;26.84;99410.44;4955662;29;20107;-67
2022/06/23 12:32:48;;;;;;;0.50;0.50;;;;;;;30.81;28.30;99392.19;4955622;29;20059;-68
2022/06/23 12:35:24;;;;;;;0.60;0.60;;;;;;;30.92;27.57;99407.91;4955731;29;20489;-67
2022/06/23 12:37:58;;;;;;;0.98;0.70;;;;;;;30.89;26.62;99406.38;4955502;29;20054;-69
2022/06/23 12:40:33;;;;;;;0.70;0.70;;;;;;;30.72;26.17;99395.63;4955454;29;20051;-67
2022/06/23 12:43:11;;;;;;;0.45;0.45;;;;;;;30.82;27.56;99399.13;4955671;29;20572;-68